Wright Pat, Ohio
Current Conditions -  °F | °C
As of 1:58 PM on Friday 21 Nov 2014 (Local Time) from KFFO Reporting Station
Clear Clear  
Wind Chill: 28°   Ceiling: Unl
Heat Index: 28°   Visibility: 10mi
Dew Point:   Wind: 1mph
Humidity: 45%   Direction: 30°NNE
Pressure: 30.48"   Gusts: NA
Location:  39.8169°N, 84.0506°W
Report Text: KFFO 211858Z AUTO 03001KT 10SM CLR M02/M13 A3048 RMK AO2 SLP337 T10221126
Loading
Personal Weather Stations






























Interactive Weather Map New forecast layout! Learn more

10-Day Weather Forecast

Advertisements
Track Severe Weather on mobile